Terminal Aerodrome Forecast
Issued by NWS Pueblo, CO

Home | Current Version | Previous Version | Text Only | Print | Product List | Glossary On
Versions: 1 2 3 4 5 6 7 8 9 10 11 12 13 14 15 16 17 18 19 20 21 22 23 24 25 26 27 28 29 30 31 32 33 34 35 36 37 38
000
FTUS45 KPUB 280540
TAFPUB
TAF
KPUB 280540Z 2806/2906 36012G22KT P6SM SCT080 SCT140
     FM281800 36010KT P6SM SCT060 BKN140
     FM282200 01014KT P6SM VCTS SCT060CB BKN140
     FM290200 03008KT P6SM SCT090 SCT150=

USA.gov is the U.S. government's official web portal to all federal, state and local government web resources and services.